createdAt,value
2019-02-27T00:01:16.924Z,51.95
2019-02-27T00:03:46.196Z,53.38
2019-02-27T00:06:15.926Z,53.96
2019-02-27T00:08:42.780Z,54.19
2019-02-27T00:11:12.236Z,54.54
2019-02-27T00:13:39.004Z,54.17
2019-02-27T00:16:10.884Z,54.01
2019-02-27T00:18:36.606Z,54.65
2019-02-27T00:21:05.081Z,54.57
2019-02-27T00:23:33.050Z,54.72
2019-02-27T00:26:00.196Z,54.42
2019-02-27T00:28:27.231Z,55.03
2019-02-27T00:30:54.650Z,54.43
2019-02-27T00:33:25.051Z,54.37
2019-02-27T00:35:51.308Z,54.32
2019-02-27T00:38:18.865Z,54.70
2019-02-27T00:40:45.898Z,53.46
2019-02-27T00:43:13.673Z,52.63
2019-02-27T00:45:41.195Z,54.03
2019-02-27T00:48:09.718Z,53.52
2019-02-27T00:50:38.915Z,53.55
2019-02-27T00:53:06.174Z,54.02
2019-02-27T00:55:38.640Z,53.27
2019-02-27T00:58:03.645Z,53.23
2019-02-27T01:00:32.127Z,52.99
2019-02-27T01:02:59.886Z,54.49
2019-02-27T01:05:27.243Z,54.16
2019-02-27T01:07:54.745Z,53.52
2019-02-27T01:10:23.485Z,53.59
2019-02-27T01:12:51.965Z,54.38
2019-02-27T01:15:21.061Z,52.76
2019-02-27T01:17:48.726Z,52.76
2019-02-27T01:20:16.182Z,53.53
2019-02-27T01:22:43.639Z,52.20
2019-02-27T01:25:11.297Z,52.20
2019-02-27T01:27:38.972Z,52.97
2019-02-27T01:30:07.441Z,53.16
2019-02-27T01:32:34.901Z,53.36
2019-02-27T01:35:01.998Z,53.04
2019-02-27T01:37:31.688Z,53.02
2019-02-27T01:39:58.542Z,52.04
2019-02-27T01:42:31.969Z,52.31
2019-02-27T01:44:57.324Z,51.62
2019-02-27T01:47:26.498Z,52.58
2019-02-27T01:49:54.161Z,52.53
2019-02-27T01:52:21.231Z,51.21
2019-02-27T01:54:49.791Z,48.70
2019-02-27T01:57:17.187Z,49.34
2019-02-27T01:59:44.501Z,50.42
2019-02-27T02:02:11.670Z,48.34
2019-02-27T02:04:40.139Z,48.56
2019-02-27T02:07:08.610Z,50.16
2019-02-27T02:09:37.763Z,49.52
2019-02-27T02:12:17.236Z,49.46
2019-02-27T02:15:09.905Z,49.33
2019-02-27T02:18:27.999Z,49.01
2019-02-27T02:21:18.023Z,48.76
2019-02-27T02:24:26.447Z,47.88
2019-02-27T02:27:20.854Z,47.77
2019-02-27T02:30:12.871Z,49.10
2019-02-27T02:32:53.405Z,48.95
2019-02-27T02:35:53.662Z,48.83
2019-02-27T02:39:09.038Z,47.42
2019-02-27T02:42:24.345Z,47.70
2019-02-27T02:45:49.425Z,50.34
2019-02-27T02:48:35.724Z,51.25
2019-02-27T02:51:46.188Z,48.23
2019-02-27T02:54:48.406Z,50.70
2019-02-27T02:57:36.236Z,50.99
2019-02-27T03:00:29.197Z,50.09
2019-02-27T03:03:28.967Z,47.72
2019-02-27T03:06:38.623Z,47.00
2019-02-27T03:09:12.718Z,48.68
2019-02-27T03:12:29.826Z,48.26
2019-02-27T03:15:19.770Z,48.10
2019-02-27T03:18:04.697Z,50.27
2019-02-27T03:21:07.987Z,49.40
2019-02-27T03:24:00.570Z,49.86
2019-02-27T03:27:11.712Z,50.09
2019-02-27T03:30:21.138Z,47.35
2019-02-27T03:33:28.564Z,47.67
2019-02-27T03:36:35.821Z,50.08
2019-02-27T03:39:23.055Z,48.87
2019-02-27T03:42:30.920Z,48.58
2019-02-27T03:45:30.715Z,48.55
2019-02-27T03:48:44.180Z,50.36
2019-02-27T03:51:24.706Z,48.51
2019-02-27T03:54:21.306Z,48.82
2019-02-27T03:57:21.417Z,49.38
2019-02-27T04:00:23.688Z,50.41
2019-02-27T04:03:17.137Z,48.70
2019-02-27T04:06:21.329Z,49.35
2019-02-27T04:08:53.905Z,48.86
2019-02-27T04:11:21.224Z,49.20
2019-02-27T04:13:48.277Z,49.43
2019-02-27T04:16:15.317Z,50.06
2019-02-27T04:18:43.017Z,49.39
2019-02-27T04:21:10.033Z,50.06
2019-02-27T04:23:37.094Z,50.27
2019-02-27T04:26:05.771Z,49.49
2019-02-27T04:28:33.068Z,48.85
2019-02-27T04:31:00.391Z,48.35
2019-02-27T04:33:29.222Z,51.42
2019-02-27T04:35:56.265Z,49.99
2019-02-27T04:38:25.094Z,48.47
2019-02-27T04:40:52.234Z,48.89
2019-02-27T04:43:19.245Z,48.83
2019-02-27T04:45:46.883Z,48.81
2019-02-27T04:48:15.669Z,49.33
2019-02-27T04:50:44.170Z,49.07
2019-02-27T04:53:11.596Z,49.35
2019-02-27T04:55:38.632Z,50.05
2019-02-27T04:58:08.833Z,48.30
2019-02-27T05:00:34.896Z,47.46
2019-02-27T05:03:01.902Z,47.87
2019-02-27T05:05:28.930Z,47.89
2019-02-27T05:07:55.937Z,47.31
2019-02-27T05:10:23.369Z,47.35
2019-02-27T05:12:51.433Z,46.92
2019-02-27T05:15:18.734Z,46.13
2019-02-27T05:17:46.579Z,46.78
2019-02-27T05:20:14.323Z,46.90
2019-02-27T05:22:46.695Z,46.74
2019-02-27T05:25:15.049Z,45.84
2019-02-27T05:27:43.352Z,45.58
2019-02-27T05:30:12.323Z,45.86
2019-02-27T05:32:40.031Z,45.84
2019-02-27T05:35:07.200Z,46.24
2019-02-27T05:37:36.093Z,45.83
2019-02-27T05:40:03.651Z,45.78
2019-02-27T05:42:30.846Z,45.68
2019-02-27T05:44:57.931Z,45.08
2019-02-27T05:47:25.066Z,47.27
2019-02-27T05:49:52.147Z,45.62
2019-02-27T05:52:19.238Z,42.91
2019-02-27T05:54:46.423Z,43.34
2019-02-27T05:57:15.324Z,44.17
2019-02-27T05:59:42.420Z,43.84
2019-02-27T06:02:10.990Z,44.58
2019-02-27T06:04:38.698Z,43.64
2019-02-27T06:07:06.345Z,43.41
2019-02-27T06:09:35.128Z,43.17
2019-02-27T06:12:06.524Z,42.99
2019-02-27T06:14:33.333Z,42.81
2019-02-27T06:17:01.086Z,42.94
2019-02-27T06:19:30.577Z,42.06
2019-02-27T06:21:57.836Z,42.78
2019-02-27T06:24:25.294Z,41.64
2019-02-27T06:26:52.443Z,41.49
2019-02-27T06:29:23.294Z,40.95
2019-02-27T06:31:49.710Z,41.15
2019-02-27T06:34:16.875Z,41.98
2019-02-27T06:36:44.624Z,40.78
2019-02-27T06:39:12.418Z,40.37
2019-02-27T06:41:39.993Z,42.71
2019-02-27T06:44:08.306Z,42.09
2019-02-27T06:46:35.431Z,40.56
2019-02-27T06:49:03.599Z,40.10
2019-02-27T06:51:30.711Z,39.64
2019-02-27T06:53:57.865Z,39.90
2019-02-27T06:56:24.978Z,39.80
2019-02-27T06:58:52.445Z,39.67
2019-02-27T07:01:19.530Z,39.78
2019-02-27T07:03:47.367Z,41.65
2019-02-27T07:06:14.780Z,39.29
2019-02-27T07:08:42.180Z,39.48
2019-02-27T07:11:11.265Z,39.35
2019-02-27T07:13:38.636Z,39.30
2019-02-27T07:16:06.091Z,39.32
2019-02-27T07:18:36.434Z,39.27
2019-02-27T07:21:03.969Z,38.63
2019-02-27T07:23:31.301Z,38.88
2019-02-27T07:25:59.324Z,38.64
2019-02-27T07:28:26.397Z,39.33
2019-02-27T07:30:53.854Z,38.66
2019-02-27T07:33:22.351Z,38.34
2019-02-27T07:35:49.708Z,38.58
2019-02-27T07:38:21.400Z,38.04
2019-02-27T07:40:46.085Z,37.98
2019-02-27T07:43:14.159Z,38.41
2019-02-27T07:45:45.023Z,38.56
2019-02-27T07:48:11.937Z,37.83
2019-02-27T07:50:40.522Z,37.56
2019-02-27T07:53:07.956Z,37.67
2019-02-27T07:55:35.332Z,37.31
2019-02-27T07:58:02.451Z,37.18
2019-02-27T08:00:29.522Z,36.82
2019-02-27T08:02:56.679Z,36.46
2019-02-27T08:05:28.265Z,36.11
2019-02-27T08:07:53.594Z,36.34
2019-02-27T08:10:20.717Z,36.59
2019-02-27T08:12:48.098Z,37.63
2019-02-27T08:15:16.038Z,36.39
2019-02-27T08:17:43.968Z,35.74
2019-02-27T08:20:12.841Z,35.91
2019-02-27T08:22:39.903Z,36.57
2019-02-27T08:25:08.407Z,36.12
2019-02-27T08:27:35.851Z,35.74
2019-02-27T08:30:04.340Z,35.44
2019-02-27T08:32:34.586Z,35.44
2019-02-27T08:35:02.052Z,35.61
2019-02-27T08:37:30.145Z,34.90
2019-02-27T08:39:57.261Z,34.90
2019-02-27T08:42:24.312Z,35.39
2019-02-27T08:44:51.389Z,34.80
2019-02-27T08:47:18.587Z,35.02
2019-02-27T08:49:45.641Z,35.58
2019-02-27T08:52:16.249Z,34.92
2019-02-27T08:54:43.465Z,34.30
2019-02-27T08:57:10.997Z,34.23
2019-02-27T08:59:39.872Z,33.81
2019-02-27T09:02:08.747Z,33.98
2019-02-27T09:04:36.934Z,33.61
2019-02-27T09:07:04.022Z,33.63
2019-02-27T09:09:31.102Z,33.23
2019-02-27T09:11:58.298Z,32.94
2019-02-27T09:14:25.492Z,33.37
2019-02-27T09:16:52.560Z,33.17
2019-02-27T09:19:20.768Z,32.46
2019-02-27T09:21:49.422Z,32.61
2019-02-27T09:24:16.855Z,32.67
2019-02-27T09:26:44.852Z,32.93
2019-02-27T09:29:13.377Z,31.83
2019-02-27T09:31:50.271Z,31.26
2019-02-27T09:34:09.701Z,30.84
2019-02-27T09:36:36.705Z,30.62
2019-02-27T09:39:05.943Z,30.33
2019-02-27T09:41:34.399Z,30.14
2019-02-27T09:44:02.675Z,30.14
2019-02-27T09:46:29.792Z,29.86
2019-02-27T09:48:57.176Z,29.56
2019-02-27T09:51:24.332Z,28.81
2019-02-27T09:53:51.697Z,27.62
2019-02-27T09:56:19.085Z,26.85
2019-02-27T09:58:47.357Z,26.48
2019-02-27T10:01:16.350Z,26.33
2019-02-27T10:03:43.374Z,25.60
2019-02-27T10:06:10.434Z,25.95
2019-02-27T10:08:37.774Z,25.38
2019-02-27T10:11:05.111Z,25.38
2019-02-27T10:13:35.480Z,25.43
2019-02-27T10:16:03.668Z,24.86
2019-02-27T10:18:31.787Z,24.99
2019-02-27T10:20:59.029Z,24.48
2019-02-27T10:23:30.454Z,23.72
2019-02-27T10:25:55.574Z,24.37
2019-02-27T10:28:22.686Z,23.96
2019-02-27T10:30:50.942Z,23.96
2019-02-27T10:33:18.391Z,23.86
2019-02-27T10:35:45.593Z,23.81
2019-02-27T10:38:12.679Z,23.78
2019-02-27T10:40:40.534Z,24.30
2019-02-27T10:43:08.711Z,24.71
2019-02-27T10:45:36.140Z,24.56
2019-02-27T10:48:03.216Z,24.19
2019-02-27T10:50:30.411Z,24.36
2019-02-27T10:52:57.502Z,25.30
2019-02-27T10:55:26.698Z,25.41
2019-02-27T10:57:54.071Z,25.79
2019-02-27T11:00:28.342Z,25.67
2019-02-27T11:02:55.501Z,26.26
2019-02-27T11:05:24.527Z,26.04
2019-02-27T11:07:52.972Z,25.99
2019-02-27T11:10:21.925Z,25.64
2019-02-27T11:12:49.307Z,25.70
2019-02-27T11:15:16.722Z,25.93
2019-02-27T11:17:43.890Z,25.48
2019-02-27T11:20:11.176Z,25.52
2019-02-27T11:22:38.457Z,26.03
2019-02-27T11:25:08.066Z,26.04
2019-02-27T11:27:36.327Z,26.25
2019-02-27T11:30:05.453Z,27.28
2019-02-27T11:32:35.490Z,28.00
2019-02-27T11:35:02.867Z,28.15
2019-02-27T11:37:30.798Z,28.02
2019-02-27T11:39:57.865Z,27.96
2019-02-27T11:42:25.696Z,28.55
2019-02-27T11:44:53.102Z,29.58
2019-02-27T11:47:20.181Z,29.66
2019-02-27T11:49:47.565Z,28.58
2019-02-27T11:52:14.625Z,29.03
2019-02-27T11:54:43.811Z,29.12
2019-02-27T11:57:12.893Z,29.50
2019-02-27T11:59:39.942Z,29.66
2019-02-27T12:02:07.525Z,29.41
2019-02-27T12:04:34.582Z,29.53
2019-02-27T12:07:01.764Z,29.99
2019-02-27T12:09:28.810Z,29.40
2019-02-27T12:11:55.878Z,29.72
2019-02-27T12:14:23.052Z,29.75
2019-02-27T12:16:52.488Z,28.84
2019-02-27T12:19:19.798Z,28.76
2019-02-27T12:21:47.155Z,29.13
2019-02-27T12:24:16.338Z,28.45
2019-02-27T12:26:43.482Z,28.25
2019-02-27T12:29:10.539Z,28.04
2019-02-27T12:31:37.630Z,27.92
2019-02-27T12:34:05.173Z,28.21
2019-02-27T12:36:32.280Z,28.05
2019-02-27T12:38:59.339Z,28.23
2019-02-27T12:41:26.776Z,28.37
2019-02-27T12:43:53.874Z,28.33
2019-02-27T12:46:20.979Z,27.26
2019-02-27T12:48:48.078Z,26.75
2019-02-27T12:51:15.135Z,26.86
2019-02-27T12:53:42.490Z,26.83
2019-02-27T12:56:10.013Z,26.39
2019-02-27T12:58:37.233Z,26.28
2019-02-27T13:01:05.442Z,26.13
2019-02-27T13:03:32.500Z,25.94
2019-02-27T13:06:00.942Z,25.81
2019-02-27T13:08:28.723Z,25.98
2019-02-27T13:10:56.547Z,26.37
2019-02-27T13:13:25.949Z,26.64
2019-02-27T13:15:52.652Z,26.48
2019-02-27T13:18:19.716Z,26.37
2019-02-27T13:20:46.805Z,26.95
2019-02-27T13:23:13.868Z,27.00
2019-02-27T13:25:40.938Z,26.76
2019-02-27T13:28:08.697Z,25.57
2019-02-27T13:30:36.046Z,25.08
2019-02-27T13:33:03.506Z,24.32
2019-02-27T13:35:31.371Z,24.10
2019-02-27T13:37:58.982Z,24.00
2019-02-27T13:40:26.486Z,22.13
2019-02-27T13:42:53.986Z,21.43
2019-02-27T13:45:22.819Z,21.56
2019-02-27T13:47:50.601Z,23.25
2019-02-27T13:50:22.405Z,23.96
2019-02-27T13:52:49.783Z,24.56
2019-02-27T13:55:16.546Z,24.65
2019-02-27T13:57:44.421Z,24.98
2019-02-27T14:00:20.404Z,24.74
2019-02-27T14:02:46.351Z,24.96
2019-02-27T14:05:14.366Z,25.60
2019-02-27T14:07:42.130Z,25.82
2019-02-27T14:10:10.793Z,25.96
2019-02-27T14:12:38.586Z,24.80
2019-02-27T14:15:07.156Z,24.43
2019-02-27T14:17:36.223Z,25.72
2019-02-27T14:20:05.332Z,26.19
2019-02-27T14:22:33.431Z,26.13
2019-02-27T14:25:01.186Z,25.16
2019-02-27T14:27:29.671Z,25.50
2019-02-27T14:29:57.092Z,26.14
2019-02-27T14:32:24.327Z,25.40
2019-02-27T14:34:51.555Z,25.04
2019-02-27T14:37:19.382Z,24.95
2019-02-27T14:39:46.945Z,25.73
2019-02-27T14:42:14.309Z,24.72
2019-02-27T14:44:42.397Z,23.76
2019-02-27T14:47:09.596Z,23.83
2019-02-27T14:49:37.090Z,23.90
2019-02-27T14:52:04.444Z,24.95
2019-02-27T14:54:32.617Z,24.19
2019-02-27T14:57:00.277Z,24.17
2019-02-27T14:59:30.500Z,24.23
2019-02-27T15:01:58.377Z,23.51
2019-02-27T15:04:25.462Z,24.23
2019-02-27T15:06:52.769Z,25.66
2019-02-27T15:09:21.377Z,26.07
2019-02-27T15:11:50.855Z,26.03
2019-02-27T15:14:19.145Z,25.77
2019-02-27T15:16:49.874Z,25.70
2019-02-27T15:19:18.945Z,26.45
2019-02-27T15:21:47.317Z,26.11
2019-02-27T15:24:15.678Z,27.67
2019-02-27T15:26:45.444Z,27.42
2019-02-27T15:29:12.683Z,27.58
2019-02-27T15:31:40.650Z,27.36
2019-02-27T15:34:11.971Z,27.26
2019-02-27T15:36:37.242Z,27.30
2019-02-27T15:39:06.357Z,28.50
2019-02-27T15:41:35.972Z,28.38
2019-02-27T15:44:04.200Z,25.59
2019-02-27T15:46:31.419Z,26.46
2019-02-27T15:49:00.392Z,26.81
2019-02-27T15:51:28.523Z,27.25
2019-02-27T15:53:56.842Z,26.92
2019-02-27T15:56:24.611Z,26.61
2019-02-27T15:58:52.095Z,27.65
2019-02-27T16:01:19.654Z,28.95
2019-02-27T16:03:47.158Z,29.84
2019-02-27T16:06:14.646Z,30.44
2019-02-27T16:08:42.061Z,31.52
2019-02-27T16:11:10.200Z,32.08
2019-02-27T16:13:38.260Z,32.70
2019-02-27T16:16:05.337Z,33.42
2019-02-27T16:18:33.864Z,33.48
2019-02-27T16:21:01.911Z,34.19
2019-02-27T16:23:31.553Z,34.31
2019-02-27T16:25:58.627Z,34.67
2019-02-27T16:28:26.016Z,34.88
2019-02-27T16:30:53.748Z,34.97
2019-02-27T16:33:24.062Z,35.16
2019-02-27T16:35:50.706Z,34.88
2019-02-27T16:38:18.197Z,34.96
2019-02-27T16:40:45.270Z,34.82
2019-02-27T16:43:14.326Z,35.08
2019-02-27T16:45:44.127Z,35.04
2019-02-27T16:48:11.530Z,35.17
2019-02-27T16:50:39.345Z,35.16
2019-02-27T16:53:07.079Z,35.58
2019-02-27T16:55:37.459Z,35.78
2019-02-27T16:58:07.755Z,36.08
2019-02-27T17:00:35.446Z,36.87
2019-02-27T17:03:02.971Z,37.13
2019-02-27T17:05:32.025Z,37.55
2019-02-27T17:08:02.000Z,37.82
2019-02-27T17:10:29.585Z,37.78
2019-02-27T17:12:57.308Z,38.08
2019-02-27T17:15:24.713Z,38.75
2019-02-27T17:17:53.931Z,38.54
2019-02-27T17:20:24.085Z,38.75
2019-02-27T17:22:52.250Z,39.11
2019-02-27T17:25:19.319Z,39.20
2019-02-27T17:27:49.913Z,39.56
2019-02-27T17:30:20.461Z,39.62
2019-02-27T17:32:47.741Z,39.54
2019-02-27T17:35:14.859Z,39.41
2019-02-27T17:37:42.270Z,39.37
2019-02-27T17:40:09.867Z,39.19
2019-02-27T17:42:39.051Z,39.02
2019-02-27T17:45:10.054Z,39.34
2019-02-27T17:47:38.014Z,39.29
2019-02-27T17:50:05.850Z,39.42
2019-02-27T17:52:36.292Z,38.90
2019-02-27T17:55:06.853Z,38.69
2019-02-27T17:57:35.826Z,38.59
2019-02-27T18:00:06.232Z,38.47
2019-02-27T18:02:35.632Z,38.42
2019-02-27T18:05:03.508Z,38.22
2019-02-27T18:07:34.526Z,37.62
2019-02-27T18:10:02.393Z,37.62
2019-02-27T18:12:30.700Z,37.53
2019-02-27T18:14:57.904Z,37.81
2019-02-27T18:17:25.998Z,37.80
2019-02-27T18:19:55.221Z,37.86
2019-02-27T18:22:24.400Z,38.08
2019-02-27T18:24:57.228Z,38.28
2019-02-27T18:27:25.447Z,38.31
2019-02-27T18:29:53.882Z,38.14
2019-02-27T18:32:22.515Z,38.16
2019-02-27T18:34:54.394Z,38.42
2019-02-27T18:37:19.790Z,38.89
2019-02-27T18:39:46.908Z,39.03
2019-02-27T18:42:14.015Z,38.98
2019-02-27T18:44:43.302Z,38.91
2019-02-27T18:47:12.820Z,38.88
2019-02-27T18:49:44.852Z,38.78
2019-02-27T18:52:21.049Z,39.03
2019-02-27T18:54:43.656Z,39.06
2019-02-27T18:57:12.150Z,39.49
2019-02-27T18:59:40.718Z,38.98
2019-02-27T19:02:07.919Z,39.15
2019-02-27T19:04:35.927Z,39.12
2019-02-27T19:07:03.990Z,39.63
2019-02-27T19:09:34.348Z,39.23
2019-02-27T19:12:01.947Z,39.18
2019-02-27T19:14:30.281Z,39.44
2019-02-27T19:16:58.049Z,39.69
2019-02-27T19:19:26.318Z,39.60
2019-02-27T19:21:53.411Z,39.35
2019-02-27T19:24:26.514Z,39.73
2019-02-27T19:26:49.600Z,39.81
2019-02-27T19:29:16.674Z,39.55
2019-02-27T19:31:43.780Z,39.96
2019-02-27T19:34:10.937Z,40.23
2019-02-27T19:36:38.022Z,40.48
2019-02-27T19:39:06.528Z,40.36
2019-02-27T19:41:39.528Z,41.17
2019-02-27T19:44:05.299Z,40.43
2019-02-27T19:46:32.746Z,40.19
2019-02-27T19:49:00.890Z,40.25
2019-02-27T19:51:28.825Z,40.50
2019-02-27T19:53:55.918Z,40.85
2019-02-27T19:56:24.370Z,41.06
2019-02-27T19:58:52.639Z,41.38
2019-02-27T20:01:20.138Z,41.51
2019-02-27T20:03:47.195Z,41.23
2019-02-27T20:06:14.652Z,41.57
2019-02-27T20:08:45.325Z,41.55
2019-02-27T20:11:11.681Z,41.04
2019-02-27T20:13:38.839Z,41.57
2019-02-27T20:16:06.352Z,41.10
2019-02-27T20:18:33.583Z,41.40
2019-02-27T20:21:02.565Z,41.96
2019-02-27T20:23:29.670Z,41.47
2019-02-27T20:25:56.747Z,41.42
2019-02-27T20:28:23.867Z,41.66
2019-02-27T20:30:52.740Z,41.66
2019-02-27T20:33:22.269Z,41.57
2019-02-27T20:35:52.286Z,42.24
2019-02-27T20:38:20.192Z,42.24
2019-02-27T20:40:47.240Z,41.68
2019-02-27T20:43:14.492Z,42.27
2019-02-27T20:45:42.982Z,42.27
2019-02-27T20:48:10.561Z,42.13
2019-02-27T20:50:39.967Z,42.13
2019-02-27T20:53:08.002Z,43.15
2019-02-27T20:55:35.661Z,43.15
2019-02-27T20:58:03.172Z,42.96
2019-02-27T21:00:36.133Z,43.89
2019-02-27T21:03:02.599Z,43.89
2019-02-27T21:05:30.958Z,44.75
2019-02-27T21:08:02.065Z,46.23
2019-02-27T21:10:28.725Z,45.43
2019-02-27T21:12:56.130Z,45.43
2019-02-27T21:15:24.861Z,45.18
2019-02-27T21:17:52.503Z,45.49
2019-02-27T21:20:19.586Z,46.14
2019-02-27T21:22:47.211Z,46.75
2019-02-27T21:25:15.677Z,46.75
2019-02-27T21:27:43.307Z,46.71
2019-02-27T21:30:17.776Z,47.51
2019-02-27T21:32:42.784Z,47.51
2019-02-27T21:35:10.127Z,47.72
2019-02-27T21:37:37.752Z,48.04
2019-02-27T21:40:04.881Z,48.62
2019-02-27T21:42:32.819Z,48.67
2019-02-27T21:45:03.673Z,48.94
2019-02-27T21:47:29.161Z,48.98
2019-02-27T21:49:56.250Z,49.53
2019-02-27T21:52:24.270Z,49.96
2019-02-27T21:54:52.030Z,50.62
2019-02-27T21:57:19.082Z,50.95
2019-02-27T21:59:47.320Z,51.75
2019-02-27T22:02:14.557Z,51.75
2019-02-27T22:04:44.054Z,52.63
2019-02-27T22:07:11.695Z,52.99
2019-02-27T22:09:38.778Z,53.77
2019-02-27T22:12:07.049Z,54.55
2019-02-27T22:14:34.769Z,54.53
2019-02-27T22:17:05.064Z,54.53
2019-02-27T22:19:32.645Z,55.26
2019-02-27T22:22:01.618Z,55.60
2019-02-27T22:24:28.751Z,55.74
2019-02-27T22:26:56.155Z,56.03
2019-02-27T22:29:25.245Z,56.41
2019-02-27T22:31:54.367Z,56.60
2019-02-27T22:34:22.612Z,57.17
2019-02-27T22:36:51.088Z,58.37
2019-02-27T22:39:18.498Z,58.70
2019-02-27T22:41:45.682Z,59.70
2019-02-27T22:44:15.603Z,59.32
2019-02-27T22:46:42.718Z,59.64
2019-02-27T22:49:09.807Z,59.78
2019-02-27T22:51:37.160Z,60.08
2019-02-27T22:54:06.357Z,60.67
2019-02-27T22:56:34.144Z,61.67
2019-02-27T22:59:02.980Z,61.33
2019-02-27T23:01:59.614Z,61.83
2019-02-27T23:04:30.026Z,62.33
2019-02-27T23:06:56.529Z,62.93
2019-02-27T23:09:26.491Z,63.42
2019-02-27T23:11:53.886Z,63.42
2019-02-27T23:14:21.358Z,63.94
2019-02-27T23:16:48.578Z,63.58
2019-02-27T23:19:15.962Z,64.24
2019-02-27T23:21:43.175Z,64.29
2019-02-27T23:24:11.274Z,65.26
2019-02-27T23:26:39.659Z,65.14
2019-02-27T23:29:07.554Z,65.29
2019-02-27T23:31:34.794Z,66.33
2019-02-27T23:34:02.057Z,66.99
2019-02-27T23:36:30.409Z,66.75
2019-02-27T23:38:58.103Z,66.99
2019-02-27T23:41:26.116Z,67.24
2019-02-27T23:43:53.191Z,67.70
2019-02-27T23:46:20.377Z,67.44
2019-02-27T23:48:47.480Z,68.31
2019-02-27T23:51:16.747Z,67.95
2019-02-27T23:53:43.624Z,67.99
2019-02-27T23:56:10.724Z,68.63
2019-02-27T23:58:37.968Z,69.15
